createdAt,value
2022-08-18T00:04:57.308Z,22.41
2022-08-18T00:10:02.349Z,22.41
2022-08-18T00:15:09.829Z,22.41
2022-08-18T00:20:18.047Z,22.39
2022-08-18T00:25:21.320Z,22.36
2022-08-18T00:30:24.418Z,22.31
2022-08-18T00:35:36.851Z,22.24
2022-08-18T00:40:45.812Z,22.20
2022-08-18T00:45:49.148Z,22.13
2022-08-18T00:51:03.887Z,22.06
2022-08-18T00:56:22.334Z,22.01
2022-08-18T01:01:30.764Z,21.93
2022-08-18T01:06:45.294Z,21.83
2022-08-18T01:11:51.459Z,21.72
2022-08-18T01:17:13.419Z,21.63
2022-08-18T01:22:34.910Z,21.56
2022-08-18T01:27:37.890Z,21.48
2022-08-18T01:32:42.160Z,21.43
2022-08-18T01:37:45.152Z,21.37
2022-08-18T01:42:48.169Z,21.32
2022-08-18T01:47:51.492Z,21.26
2022-08-18T01:52:54.444Z,21.22
2022-08-18T01:57:57.250Z,21.18
2022-08-18T02:03:03.005Z,21.16
2022-08-18T02:08:07.450Z,21.09
2022-08-18T02:13:10.973Z,21.08
2022-08-18T02:18:25.954Z,21.10
2022-08-18T02:23:52.127Z,21.14
2022-08-18T02:28:57.484Z,21.16
2022-08-18T02:34:00.224Z,21.07
2022-08-18T02:39:03.730Z,20.99
2022-08-18T02:44:08.808Z,20.98
2022-08-18T02:49:12.866Z,20.99
2022-08-18T02:54:16.346Z,20.97
2022-08-18T02:59:27.696Z,20.97
2022-08-18T03:04:31.679Z,20.91
2022-08-18T03:09:35.862Z,20.82
2022-08-18T03:14:40.156Z,20.77
2022-08-18T03:19:45.221Z,20.68
2022-08-18T03:24:50.856Z,20.64
2022-08-18T03:29:53.804Z,20.65
2022-08-18T03:34:56.681Z,20.69
2022-08-18T03:39:59.596Z,20.71
2022-08-18T03:45:12.535Z,20.76
2022-08-18T03:50:20.760Z,20.78
2022-08-18T03:55:23.610Z,20.79
2022-08-18T04:00:27.612Z,20.76
2022-08-18T04:05:30.491Z,20.73
2022-08-18T04:10:35.532Z,20.70
2022-08-18T04:15:38.348Z,20.75
2022-08-18T04:20:59.597Z,20.84
2022-08-18T04:26:04.269Z,20.93
2022-08-18T04:31:15.264Z,21.06
2022-08-18T04:36:20.468Z,21.23
2022-08-18T04:41:27.220Z,21.40
2022-08-18T04:46:34.870Z,21.58
2022-08-18T04:52:30.936Z,21.79
2022-08-18T04:57:34.733Z,22.01
2022-08-18T05:02:38.287Z,22.23
2022-08-18T05:07:46.906Z,22.42
2022-08-18T05:12:49.763Z,22.63
2022-08-18T05:17:52.767Z,22.83
2022-08-18T05:22:57.440Z,23.03
2022-08-18T05:28:00.267Z,23.23
2022-08-18T05:33:04.379Z,23.42
2022-08-18T05:38:52.636Z,23.64
2022-08-18T05:43:57.466Z,23.82
2022-08-18T05:49:00.344Z,23.98
2022-08-18T05:54:23.910Z,24.16
2022-08-18T05:59:43.122Z,24.34
2022-08-18T06:04:56.104Z,24.51
2022-08-18T06:09:59.492Z,24.70
2022-08-18T06:15:12.234Z,24.92
2022-08-18T06:20:48.168Z,25.13
2022-08-18T06:26:34.415Z,25.30
2022-08-18T06:31:44.907Z,25.44
2022-08-18T06:37:31.024Z,25.62
2022-08-18T06:42:36.525Z,25.79
2022-08-18T06:48:32.501Z,25.95
2022-08-18T06:54:26.679Z,26.11
2022-08-18T06:59:36.820Z,26.27
2022-08-18T07:04:44.122Z,26.41
2022-08-18T07:09:48.531Z,26.55
2022-08-18T07:14:57.438Z,26.69
2022-08-18T07:20:24.643Z,26.86
2022-08-18T07:25:43.191Z,27.12
2022-08-18T07:31:06.438Z,27.27
2022-08-18T07:36:11.178Z,27.45
2022-08-18T07:41:26.845Z,27.63
2022-08-18T07:46:45.291Z,27.84
2022-08-18T07:51:59.621Z,28.03
2022-08-18T07:57:35.388Z,28.28
2022-08-18T08:03:16.468Z,28.52
2022-08-18T08:08:50.461Z,28.67
2022-08-18T08:14:26.996Z,28.85
2022-08-18T08:20:31.984Z,29.05
2022-08-18T08:26:16.449Z,29.27
2022-08-18T08:31:49.710Z,29.54
2022-08-18T08:37:02.638Z,29.76
2022-08-18T08:42:30.382Z,29.88
2022-08-18T08:48:14.869Z,29.95
2022-08-18T08:53:35.587Z,30.07
2022-08-18T08:58:59.435Z,30.25
2022-08-18T09:04:57.967Z,30.57
2022-08-18T09:10:57.411Z,30.72
2022-08-18T09:16:21.615Z,30.74
2022-08-18T09:21:46.413Z,30.84
2022-08-18T09:27:16.403Z,31.08
2022-08-18T09:32:19.205Z,31.25
2022-08-18T09:37:38.217Z,31.48
2022-08-18T09:43:31.300Z,31.64
2022-08-18T09:54:14.648Z,31.72
2022-08-18T09:59:32.773Z,31.85
2022-08-18T10:04:50.633Z,32.00
2022-08-18T10:10:58.858Z,32.18
2022-08-18T10:15:46.424Z,32.33
2022-08-18T10:21:18.886Z,32.52
2022-08-18T10:26:34.318Z,32.97
2022-08-18T10:32:01.681Z,33.46
2022-08-18T10:37:39.872Z,33.79
2022-08-18T10:43:57.589Z,33.92
2022-08-18T10:49:13.006Z,34.00
2022-08-18T10:54:56.102Z,33.70
2022-08-18T11:00:15.591Z,33.73
2022-08-18T11:05:26.009Z,33.94
2022-08-18T11:11:27.371Z,34.27
2022-08-18T11:16:54.363Z,34.70
2022-08-18T11:21:57.582Z,35.03
2022-08-18T11:27:17.382Z,35.00
2022-08-18T11:32:39.480Z,35.21
2022-08-18T11:38:12.537Z,35.47
2022-08-18T11:43:41.354Z,35.53
2022-08-18T11:48:53.506Z,35.20
2022-08-18T11:54:04.993Z,35.32
2022-08-18T11:59:54.868Z,35.52
2022-08-18T12:10:29.335Z,35.71
2022-08-18T12:15:44.148Z,35.66
2022-08-18T12:20:51.262Z,35.57
2022-08-18T12:25:54.722Z,35.96
2022-08-18T12:30:57.987Z,36.36
2022-08-18T12:36:02.383Z,36.69
2022-08-18T12:41:11.867Z,37.00
2022-08-18T12:46:15.252Z,37.36
2022-08-18T12:51:18.586Z,37.09
2022-08-18T12:56:31.132Z,37.10
2022-08-18T13:01:39.760Z,37.29
2022-08-18T13:07:00.457Z,37.21
2022-08-18T13:12:09.973Z,37.37
2022-08-18T13:17:30.060Z,37.42
2022-08-18T13:22:40.249Z,37.22
2022-08-18T13:27:45.178Z,36.93
2022-08-18T13:33:00.438Z,36.66
2022-08-18T13:38:14.624Z,36.44
2022-08-18T13:43:35.912Z,36.34
2022-08-18T13:48:41.636Z,36.06
2022-08-18T13:53:57.602Z,36.08
2022-08-18T13:59:07.701Z,36.14
2022-08-18T14:04:14.848Z,36.41
2022-08-18T14:09:19.950Z,36.72
2022-08-18T14:14:31.369Z,36.89
2022-08-18T14:19:52.884Z,37.10
2022-08-18T14:25:14.666Z,37.07
2022-08-18T14:30:25.265Z,36.80
2022-08-18T14:36:03.712Z,36.57
2022-08-18T14:40:51.758Z,36.83
2022-08-18T14:45:58.029Z,36.93
2022-08-18T14:51:03.099Z,36.88
2022-08-18T14:56:06.790Z,37.12
2022-08-18T15:01:13.363Z,37.34
2022-08-18T15:06:23.162Z,37.53
2022-08-18T15:11:31.998Z,37.50
2022-08-18T15:16:39.780Z,37.63
2022-08-18T15:22:01.587Z,37.67
2022-08-18T15:27:10.259Z,37.74
2022-08-18T15:32:17.758Z,37.78
2022-08-18T15:37:24.475Z,37.78
2022-08-18T15:42:27.448Z,37.66
2022-08-18T15:47:33.949Z,37.67
2022-08-18T15:52:37.005Z,37.44
2022-08-18T15:57:44.603Z,37.38
2022-08-18T16:02:57.679Z,37.26
2022-08-18T16:08:01.345Z,37.18
2022-08-18T16:13:07.212Z,37.05
2022-08-18T16:18:10.732Z,36.88
2022-08-18T16:23:14.149Z,36.65
2022-08-18T16:28:17.167Z,36.44
2022-08-18T16:33:19.891Z,36.17
2022-08-18T16:38:24.139Z,35.95
2022-08-18T16:43:27.302Z,35.67
2022-08-18T16:48:31.059Z,35.45
2022-08-18T16:53:40.142Z,35.19
2022-08-18T16:59:02.791Z,34.95
2022-08-18T17:04:13.525Z,34.67
2022-08-18T17:09:20.052Z,34.32
2022-08-18T17:14:28.083Z,33.96
2022-08-18T17:19:34.664Z,33.60
2022-08-18T17:24:38.219Z,33.19
2022-08-18T17:29:54.787Z,32.78
2022-08-18T17:35:42.873Z,32.38
2022-08-18T17:40:53.930Z,32.02
2022-08-18T17:46:04.546Z,31.68
2022-08-18T17:51:34.405Z,31.38
2022-08-18T17:56:49.694Z,31.07
2022-08-18T18:02:29.570Z,30.72
2022-08-18T18:07:43.669Z,30.49
2022-08-18T18:12:46.491Z,30.34
2022-08-18T18:17:49.372Z,30.18
2022-08-18T18:22:52.599Z,29.98
2022-08-18T18:27:55.413Z,29.76
2022-08-18T18:33:13.586Z,29.52
2022-08-18T18:38:38.029Z,29.28
2022-08-18T18:43:46.577Z,29.07
2022-08-18T18:49:26.646Z,28.91
2022-08-18T18:54:49.762Z,28.73
2022-08-18T19:00:35.624Z,28.56
2022-08-18T19:05:45.596Z,28.39
2022-08-18T19:11:12.065Z,28.22
2022-08-18T19:16:24.662Z,28.13
2022-08-18T19:22:03.828Z,28.04
2022-08-18T19:26:59.909Z,27.87
2022-08-18T19:32:20.108Z,27.75
2022-08-18T19:37:34.138Z,27.63
2022-08-18T19:42:40.128Z,27.55
2022-08-18T19:47:51.160Z,27.45
2022-08-18T19:53:15.976Z,27.34
2022-08-18T19:59:17.830Z,27.29
2022-08-18T20:04:59.513Z,27.22
2022-08-18T20:10:27.428Z,27.13
2022-08-18T20:15:31.332Z,27.09
2022-08-18T20:20:38.318Z,27.01
2022-08-18T20:25:44.276Z,26.92
2022-08-18T20:31:16.637Z,26.78
2022-08-18T20:36:36.669Z,26.67
2022-08-18T20:41:45.663Z,26.53
2022-08-18T20:47:16.220Z,26.44
2022-08-18T20:52:55.737Z,26.27
2022-08-18T20:58:08.089Z,26.18
2022-08-18T21:03:22.784Z,26.08
2022-08-18T21:08:33.146Z,26.00
2022-08-18T21:13:41.069Z,25.92
2022-08-18T21:18:51.745Z,25.83
2022-08-18T21:23:58.820Z,25.82
2022-08-18T21:29:09.132Z,25.81
2022-08-18T21:34:44.405Z,25.79
2022-08-18T21:39:55.591Z,25.74
2022-08-18T21:45:01.107Z,25.69
2022-08-18T21:50:14.935Z,25.64
2022-08-18T21:55:33.672Z,25.58
2022-08-18T22:00:46.301Z,25.48
2022-08-18T22:06:35.495Z,25.42
2022-08-18T22:12:01.980Z,25.41
2022-08-18T22:17:32.712Z,25.33
2022-08-18T22:22:54.526Z,25.26
2022-08-18T22:27:59.279Z,25.21
2022-08-18T22:33:02.113Z,25.16
2022-08-18T22:38:05.268Z,25.08
2022-08-18T22:43:08.062Z,25.02
2022-08-18T22:48:12.226Z,24.96
2022-08-18T22:53:16.879Z,24.92
2022-08-18T22:58:26.900Z,24.86
2022-08-18T23:03:31.387Z,24.79
2022-08-18T23:08:54.926Z,24.75
2022-08-18T23:14:03.047Z,24.69
2022-08-18T23:19:06.481Z,24.64
2022-08-18T23:24:13.829Z,24.60
2022-08-18T23:29:17.386Z,24.54
2022-08-18T23:34:23.963Z,24.51
2022-08-18T23:39:29.088Z,24.49
2022-08-18T23:44:32.954Z,24.47
2022-08-18T23:49:36.817Z,24.46
2022-08-18T23:54:39.615Z,24.48
2022-08-18T23:59:42.416Z,24.49
